Time;durP1;ratioP1;P1;durP2;ratioP2;P2;SDS_P1;SDS_P2;PMS_P1;PMS_P2;Temp;Humidity;BMP_temperature;BMP_pressure;BME280_temperature;BME280_humidity;BME280_pressure;Samples;Min_cycle;Max_cycle;Signal;HPM_P1;HPM_P2
2023/02/25 00:01:49;;;;;;;27.15;4.05;;;6.10;99.90;;;;;;4664974;30;20217;-76
2023/02/25 00:04:15;;;;;;;33.25;4.05;;;6.10;99.90;;;;;;4661250;30;20201;-74
2023/02/25 00:06:41;;;;;;;32.70;4.22;;;6.10;99.90;;;;;;4671521;30;20258;-74
2023/02/25 00:09:10;;;;;;;34.25;5.15;;;6.10;99.90;;;;;;4672706;30;20200;-74
2023/02/25 00:11:35;;;;;;;28.65;4.30;;;6.10;99.90;;;;;;4670718;30;20197;-75
2023/02/25 00:14:01;;;;;;;33.50;4.75;;;6.10;99.90;;;;;;4666566;30;20953;-76
2023/02/25 00:16:27;;;;;;;32.95;5.05;;;6.00;99.90;;;;;;4665456;30;20192;-74
2023/02/25 00:18:56;;;;;;;29.17;4.88;;;6.00;99.90;;;;;;4670537;30;20195;-73
2023/02/25 00:21:23;;;;;;;29.08;4.57;;;6.00;99.90;;;;;;4668602;30;20232;-73
2023/02/25 00:23:50;;;;;;;26.35;4.35;;;6.00;99.90;;;;;;4656738;30;20223;-74
2023/02/25 00:26:16;;;;;;;30.30;4.90;;;6.10;99.90;;;;;;4660831;30;20186;-74
2023/02/25 00:28:43;;;;;;;33.42;4.50;;;6.00;99.90;;;;;;4651643;30;20291;-74
2023/02/25 00:31:13;;;;;;;30.25;3.88;;;6.10;99.90;;;;;;4668326;30;20912;-76
2023/02/25 00:33:40;;;;;;;22.88;3.45;;;6.10;99.90;;;;;;4658916;30;20185;-74
2023/02/25 00:36:13;;;;;;;15.40;2.78;;;6.10;99.90;;;;;;4664547;30;20244;-74
2023/02/25 00:38:39;;;;;;;8.43;1.55;;;6.10;99.90;;;;;;4666641;30;20720;-75
2023/02/25 00:41:13;;;;;;;13.25;2.15;;;6.00;99.90;;;;;;4667006;30;20259;-74
2023/02/25 00:43:41;;;;;;;8.57;2.00;;;5.80;99.90;;;;;;4668434;30;20247;-74
2023/02/25 00:46:11;;;;;;;9.27;1.77;;;5.70;99.90;;;;;;4661670;30;20205;-73
2023/02/25 00:48:38;;;;;;;7.97;1.63;;;5.60;99.90;;;;;;4670987;30;20681;-74
2023/02/25 00:51:09;;;;;;;6.57;1.38;;;5.60;99.90;;;;;;4650706;30;20193;-74
2023/02/25 00:53:36;;;;;;;6.28;1.63;;;5.60;99.90;;;;;;4677875;30;20199;-75
2023/02/25 00:56:04;;;;;;;10.18;1.60;;;5.50;99.90;;;;;;4668793;30;20659;-79
2023/02/25 00:58:30;;;;;;;10.48;1.80;;;5.50;99.90;;;;;;4657492;30;20181;-74
2023/02/25 01:00:56;;;;;;;8.95;1.33;;;5.50;99.90;;;;;;4649644;30;20710;-74
2023/02/25 01:03:22;;;;;;;9.05;1.55;;;5.40;99.90;;;;;;4657117;30;20271;-74
2023/02/25 01:05:49;;;;;;;10.05;1.45;;;5.40;99.90;;;;;;4654434;30;20667;-74
2023/02/25 01:08:19;;;;;;;6.45;1.55;;;5.50;99.90;;;;;;4659124;30;20237;-75
2023/02/25 01:10:46;;;;;;;11.20;1.60;;;5.40;99.90;;;;;;4651756;30;20216;-73
2023/02/25 01:13:14;;;;;;;6.85;1.60;;;5.50;99.90;;;;;;4652116;30;20280;-75
2023/02/25 01:15:40;;;;;;;12.55;1.90;;;5.50;99.90;;;;;;4668288;30;20312;-75
2023/02/25 01:18:06;;;;;;;9.43;1.85;;;5.50;99.90;;;;;;4663658;30;20275;-75
2023/02/25 01:20:36;;;;;;;9.07;2.10;;;5.50;99.90;;;;;;4656501;30;20190;-75
2023/02/25 01:23:02;;;;;;;15.60;2.00;;;5.50;99.90;;;;;;4654603;30;20201;-79
2023/02/25 01:25:29;;;;;;;26.27;2.95;;;5.60;99.90;;;;;;4662882;30;20236;-75
2023/02/25 01:27:56;;;;;;;22.83;3.03;;;5.60;99.90;;;;;;4662864;30;20279;-75
2023/02/25 01:30:22;;;;;;;30.23;4.00;;;5.60;99.90;;;;;;4666780;30;20186;-75
2023/02/25 01:32:48;;;;;;;38.72;4.13;;;5.60;99.90;;;;;;4652388;30;20236;-75
2023/02/25 01:35:14;;;;;;;30.55;3.60;;;5.60;99.90;;;;;;4651692;30;20678;-75
2023/02/25 01:37:42;;;;;;;27.73;3.95;;;5.60;99.90;;;;;;4666840;30;20196;-75
2023/02/25 01:40:15;;;;;;;28.80;4.30;;;5.70;99.90;;;;;;4652437;30;20203;-75
2023/02/25 01:42:43;;;;;;;26.67;4.00;;;5.70;99.90;;;;;;4665330;30;20339;-75
2023/02/25 01:45:21;;;;;;;28.35;4.18;;;5.70;99.90;;;;;;4639522;30;20231;-75
2023/02/25 01:48:17;;;;;;;30.85;3.95;;;5.80;99.90;;;;;;4664162;30;20201;-74
2023/02/25 01:50:50;;;;;;;26.77;3.60;;;5.80;99.90;;;;;;4647002;30;20197;-75
2023/02/25 01:53:22;;;;;;;25.42;3.97;;;5.70;99.90;;;;;;4639409;30;20252;-74
2023/02/25 01:55:48;;;;;;;26.88;3.47;;;5.70;99.90;;;;;;4642888;30;20703;-74
2023/02/25 01:58:16;;;;;;;31.63;3.80;;;5.80;99.90;;;;;;4672599;30;20197;-74
2023/02/25 02:00:42;;;;;;;35.22;3.67;;;5.70;99.90;;;;;;4651115;30;20305;-74
2023/02/25 02:03:14;;;;;;;27.48;3.53;;;5.70;99.90;;;;;;4669748;30;20643;-74
2023/02/25 02:05:52;;;;;;;25.38;3.63;;;5.70;99.90;;;;;;4652544;30;20187;-74
2023/02/25 02:08:18;;;;;;;32.20;3.67;;;5.70;99.90;;;;;;4674862;30;20209;-74
2023/02/25 02:10:44;;;;;;;31.27;3.70;;;5.70;99.90;;;;;;4656864;30;20204;-75
2023/02/25 02:13:10;;;;;;;32.97;3.47;;;5.70;99.90;;;;;;4668280;30;20345;-75
2023/02/25 02:15:41;;;;;;;26.15;3.60;;;5.60;99.90;;;;;;4653762;30;20634;-75
2023/02/25 02:18:09;;;;;;;22.38;3.50;;;5.60;99.90;;;;;;4655829;30;20189;-76
2023/02/25 02:21:09;;;;;;;25.00;3.95;;;5.60;99.90;;;;;;4616171;30;20210;-76
2023/02/25 02:23:54;;;;;;;19.48;3.20;;;5.60;99.90;;;;;;4675263;30;20232;-75
2023/02/25 02:26:42;;;;;;;32.40;3.65;;;5.60;99.90;;;;;;4651577;30;20647;-75
2023/02/25 02:29:36;;;;;;;27.77;4.00;;;5.60;99.90;;;;;;4671750;30;20280;-74
2023/02/25 02:32:39;;;;;;;28.17;3.42;;;5.60;99.90;;;;;;4655647;30;20569;-74
2023/02/25 02:35:13;;;;;;;31.83;3.92;;;5.60;99.90;;;;;;4654321;30;20197;-75
2023/02/25 02:37:56;;;;;;;30.77;4.25;;;5.60;99.90;;;;;;4665185;30;20197;-76
2023/02/25 02:40:31;;;;;;;24.58;3.47;;;5.60;99.90;;;;;;4670483;30;20247;-75
2023/02/25 02:43:04;;;;;;;25.10;3.25;;;5.60;99.90;;;;;;4656766;30;20203;-75
2023/02/25 02:46:02;;;;;;;38.05;4.28;;;5.70;99.90;;;;;;4651135;30;20537;-77
2023/02/25 02:48:40;;;;;;;29.08;3.40;;;5.70;99.90;;;;;;4656535;30;20335;-75
2023/02/25 02:51:13;;;;;;;17.52;2.65;;;5.70;99.90;;;;;;4659821;30;21777;-74
2023/02/25 02:54:05;;;;;;;12.60;2.38;;;5.70;99.90;;;;;;4663959;30;20233;-75
2023/02/25 02:56:34;;;;;;;17.33;2.33;;;5.60;99.90;;;;;;4635155;30;20198;-75
2023/02/25 02:59:17;;;;;;;18.30;2.63;;;5.60;99.90;;;;;;4659528;30;20280;-75
2023/02/25 03:01:51;;;;;;;14.38;2.08;;;5.60;99.90;;;;;;4659077;30;20228;-74
2023/02/25 03:04:28;;;;;;;9.38;2.17;;;5.60;99.90;;;;;;4656557;30;20279;-75
2023/02/25 03:07:01;;;;;;;15.38;2.30;;;5.60;99.90;;;;;;4661521;30;20184;-74
2023/02/25 03:09:37;;;;;;;14.27;2.35;;;5.50;99.90;;;;;;4644082;30;20221;-78
2023/02/25 03:12:03;;;;;;;13.95;2.10;;;5.50;99.90;;;;;;4665416;30;20189;-74
2023/02/25 03:14:32;;;;;;;14.20;2.40;;;5.50;99.90;;;;;;4657335;30;20739;-74
2023/02/25 03:17:08;;;;;;;19.38;2.15;;;5.50;99.90;;;;;;4678505;30;20288;-75
2023/02/25 03:19:49;;;;;;;15.00;2.10;;;5.50;99.90;;;;;;4643821;30;20240;-77
2023/02/25 03:22:21;;;;;;;10.38;1.35;;;5.50;99.90;;;;;;4661421;30;20247;-74
2023/02/25 03:24:57;;;;;;;7.25;1.27;;;5.50;99.90;;;;;;4669284;30;20202;-74
2023/02/25 03:27:33;;;;;;;7.82;1.88;;;5.50;99.90;;;;;;4670560;30;20209;-75
2023/02/25 03:30:20;;;;;;;9.55;1.60;;;5.50;99.90;;;;;;4644011;30;20215;-75
2023/02/25 03:32:53;;;;;;;10.05;1.25;;;5.40;99.90;;;;;;4663425;30;20194;-74
2023/02/25 03:35:20;;;;;;;7.60;1.52;;;5.40;99.90;;;;;;4668112;30;20192;-76
2023/02/25 03:37:50;;;;;;;9.65;1.35;;;5.40;99.90;;;;;;4665917;30;20198;-75
2023/02/25 03:40:20;;;;;;;9.85;1.60;;;5.40;99.90;;;;;;4665922;30;20197;-75
2023/02/25 03:43:05;;;;;;;10.75;1.60;;;5.40;99.90;;;;;;4665117;30;20255;-74
2023/02/25 03:45:34;;;;;;;11.60;1.75;;;5.40;99.90;;;;;;4652133;30;20197;-76
2023/02/25 03:48:02;;;;;;;8.00;1.88;;;5.40;99.90;;;;;;4659603;30;20229;-75
2023/02/25 03:50:32;;;;;;;12.93;1.80;;;5.30;99.90;;;;;;4644495;30;20208;-76
2023/02/25 03:53:03;;;;;;;10.57;1.65;;;5.40;99.90;;;;;;4673165;30;20266;-74
2023/02/25 03:55:50;;;;;;;8.40;1.70;;;5.40;99.90;;;;;;4667502;30;20646;-75
2023/02/25 03:58:17;;;;;;;7.90;1.60;;;5.40;99.90;;;;;;4677654;30;20196;-75
2023/02/25 04:00:46;;;;;;;8.25;1.15;;;5.30;99.90;;;;;;4653589;30;20220;-74
2023/02/25 04:03:12;;;;;;;5.72;1.00;;;5.40;99.90;;;;;;4657754;30;20197;-75
2023/02/25 04:05:38;;;;;;;6.35;1.00;;;5.30;99.90;;;;;;4668641;30;20525;-74
2023/02/25 04:08:14;;;;;;;4.25;0.90;;;5.30;99.90;;;;;;4665203;30;20239;-74
2023/02/25 04:10:42;;;;;;;9.13;1.58;;;5.20;99.90;;;;;;4670545;30;20274;-73
2023/02/25 04:13:08;;;;;;;10.63;1.00;;;5.20;99.90;;;;;;4672058;30;20223;-74
2023/02/25 04:15:34;;;;;;;5.47;1.10;;;5.10;99.90;;;;;;4657201;30;20699;-75
2023/02/25 04:18:00;;;;;;;8.27;0.90;;;5.10;99.90;;;;;;4654050;30;20189;-74
2023/02/25 04:20:28;;;;;;;7.03;1.30;;;5.10;99.90;;;;;;4641496;30;20296;-75
2023/02/25 04:22:54;;;;;;;5.25;1.00;;;5.10;99.90;;;;;;4660668;30;20212;-74
2023/02/25 04:25:20;;;;;;;4.82;0.95;;;5.10;99.90;;;;;;4655599;30;20205;-74
2023/02/25 04:27:46;;;;;;;5.63;1.13;;;5.10;99.90;;;;;;4682684;30;20193;-74
2023/02/25 04:30:13;;;;;;;7.28;0.98;;;5.10;99.90;;;;;;4672066;30;20198;-75
2023/02/25 04:32:38;;;;;;;10.35;1.30;;;5.10;99.90;;;;;;4667962;30;20209;-75
2023/02/25 04:35:08;;;;;;;9.10;1.38;;;5.10;99.90;;;;;;4652406;30;20200;-74
2023/02/25 04:37:34;;;;;;;8.90;1.50;;;5.10;99.90;;;;;;4681087;30;20648;-74
2023/02/25 04:39:59;;;;;;;6.30;1.33;;;5.10;99.90;;;;;;4659576;30;20256;-75
2023/02/25 04:42:25;;;;;;;5.53;1.33;;;5.10;99.90;;;;;;4664996;30;20303;-78
2023/02/25 04:44:51;;;;;;;7.80;1.45;;;5.10;99.90;;;;;;4667991;30;20251;-75
2023/02/25 04:47:17;;;;;;;8.15;1.23;;;5.10;99.90;;;;;;4668463;30;20285;-75
2023/02/25 04:49:43;;;;;;;5.88;1.00;;;5.10;99.90;;;;;;4666085;30;20929;-74
2023/02/25 04:52:14;;;;;;;4.70;1.25;;;5.20;99.90;;;;;;4670843;30;20250;-74
2023/02/25 04:54:39;;;;;;;6.15;1.02;;;5.20;99.90;;;;;;4669337;30;20197;-74
2023/02/25 04:57:06;;;;;;;2.35;0.90;;;5.20;99.90;;;;;;4667353;30;20550;-75
2023/02/25 04:59:32;;;;;;;5.15;1.15;;;5.30;99.90;;;;;;4666144;30;20299;-76
2023/02/25 05:01:58;;;;;;;5.93;1.15;;;5.20;99.90;;;;;;4659952;30;20262;-76
2023/02/25 05:04:23;;;;;;;5.88;1.33;;;5.20;99.90;;;;;;4670416;30;20209;-75
2023/02/25 05:06:49;;;;;;;8.75;1.48;;;5.20;99.90;;;;;;4666557;30;20220;-75
2023/02/25 05:09:15;;;;;;;7.32;1.38;;;5.20;99.90;;;;;;4644826;30;20288;-75
2023/02/25 05:11:40;;;;;;;10.40;1.40;;;5.20;99.90;;;;;;4674251;30;20197;-75
2023/02/25 05:14:06;;;;;;;9.45;1.35;;;5.20;99.90;;;;;;4677578;30;20201;-76
2023/02/25 05:16:32;;;;;;;5.85;1.20;;;5.30;99.90;;;;;;4668855;30;20192;-75
2023/02/25 05:18:58;;;;;;;8.30;1.23;;;5.30;99.90;;;;;;4669180;30;20526;-75
2023/02/25 05:21:25;;;;;;;8.48;1.30;;;5.30;99.90;;;;;;4650293;30;20483;-75
2023/02/25 05:23:52;;;;;;;5.60;1.42;;;5.30;99.90;;;;;;4673821;30;20651;-75
2023/02/25 05:26:21;;;;;;;7.28;1.00;;;5.30;99.90;;;;;;4667295;30;20221;-74
2023/02/25 05:28:49;;;;;;;5.88;0.90;;;5.30;99.90;;;;;;4657543;30;20193;-75
2023/02/25 05:31:15;;;;;;;6.45;1.17;;;5.30;99.90;;;;;;4664250;30;20198;-75
2023/02/25 05:33:40;;;;;;;6.57;1.38;;;5.30;99.90;;;;;;4662515;30;20197;-75
2023/02/25 05:36:08;;;;;;;7.68;1.05;;;5.20;99.90;;;;;;4653556;30;20194;-75
2023/02/25 05:38:35;;;;;;;11.98;1.60;;;5.20;99.90;;;;;;4674654;30;20195;-77
2023/02/25 05:41:02;;;;;;;14.10;1.70;;;5.20;99.90;;;;;;4667990;30;20295;-75
2023/02/25 05:43:28;;;;;;;9.88;1.40;;;5.20;99.90;;;;;;4667859;30;20205;-75
2023/02/25 05:45:54;;;;;;;8.68;1.40;;;5.10;99.90;;;;;;4665299;30;20193;-75
2023/02/25 05:48:21;;;;;;;11.93;1.50;;;5.10;99.90;;;;;;4670432;30;20223;-75
2023/02/25 05:50:51;;;;;;;8.57;1.38;;;5.10;99.90;;;;;;4669268;30;20276;-75
2023/02/25 05:53:18;;;;;;;5.35;1.33;;;5.00;99.90;;;;;;4661017;30;20201;-77
2023/02/25 05:55:44;;;;;;;10.65;1.48;;;5.00;99.90;;;;;;4659526;30;20571;-74
2023/02/25 05:58:11;;;;;;;7.05;1.35;;;5.00;99.90;;;;;;4669210;30;20196;-76
2023/02/25 06:00:38;;;;;;;9.40;1.30;;;5.00;99.90;;;;;;4678013;30;20196;-75
2023/02/25 06:03:04;;;;;;;8.50;1.48;;;5.00;99.90;;;;;;4673707;30;20594;-74
2023/02/25 06:05:30;;;;;;;4.78;1.30;;;5.00;99.90;;;;;;4649838;30;20218;-79
2023/02/25 06:07:56;;;;;;;6.00;1.00;;;5.00;99.90;;;;;;4659860;30;20359;-74
2023/02/25 06:10:26;;;;;;;5.55;1.10;;;5.00;99.90;;;;;;4660368;30;20614;-74
2023/02/25 06:12:52;;;;;;;6.90;1.20;;;5.00;99.90;;;;;;4667523;30;20280;-74
2023/02/25 06:15:18;;;;;;;7.43;1.20;;;5.00;99.90;;;;;;4672382;30;20758;-74
2023/02/25 06:17:44;;;;;;;5.22;1.20;;;5.00;99.90;;;;;;4680304;30;20196;-74
2023/02/25 06:20:10;;;;;;;8.23;1.33;;;4.80;99.90;;;;;;4646175;30;20200;-78
2023/02/25 06:22:36;;;;;;;7.68;1.58;;;4.70;99.90;;;;;;4673510;30;20221;-73
2023/02/25 06:25:02;;;;;;;6.20;1.40;;;4.60;99.90;;;;;;4665528;30;20674;-74
2023/02/25 06:27:28;;;;;;;7.55;0.95;;;4.60;99.90;;;;;;4669772;30;20288;-73
2023/02/25 06:29:54;;;;;;;5.30;1.30;;;4.60;99.90;;;;;;4666033;30;20360;-74
2023/02/25 06:32:20;;;;;;;5.03;1.17;;;4.50;99.90;;;;;;4658285;30;20305;-79
2023/02/25 06:34:46;;;;;;;4.28;1.10;;;4.50;99.90;;;;;;4662911;30;20221;-73
2023/02/25 06:37:12;;;;;;;3.42;1.02;;;4.50;99.90;;;;;;4660758;30;20205;-73
2023/02/25 06:39:42;;;;;;;3.20;0.98;;;4.50;99.90;;;;;;4672388;30;20196;-76
2023/02/25 06:42:08;;;;;;;4.43;0.90;;;4.40;99.90;;;;;;4668480;30;20544;-73
2023/02/25 06:44:34;;;;;;;6.30;1.27;;;4.40;99.90;;;;;;4674070;30;20201;-73
2023/02/25 06:47:00;;;;;;;6.32;1.10;;;4.40;99.90;;;;;;4649862;30;20232;-73
2023/02/25 06:49:26;;;;;;;5.88;1.40;;;4.40;99.90;;;;;;4626564;30;20220;-75
2023/02/25 06:51:51;;;;;;;5.55;1.15;;;4.40;99.90;;;;;;4651120;30;20189;-75
2023/02/25 06:54:18;;;;;;;5.43;1.20;;;4.50;99.90;;;;;;4660474;30;20670;-73
2023/02/25 06:56:44;;;;;;;7.07;1.10;;;4.40;99.90;;;;;;4675316;30;20197;-74
2023/02/25 06:59:10;;;;;;;7.95;1.50;;;4.40;99.90;;;;;;4675873;30;20192;-75
2023/02/25 07:01:36;;;;;;;4.15;1.10;;;4.40;99.90;;;;;;4649636;30;20280;-73
2023/02/25 07:04:03;;;;;;;4.38;1.23;;;4.40;99.90;;;;;;4661241;30;20304;-74
2023/02/25 07:06:29;;;;;;;7.45;1.85;;;4.40;99.90;;;;;;4668291;30;20207;-73
2023/02/25 07:08:56;;;;;;;6.32;1.27;;;4.40;99.90;;;;;;4680068;30;20220;-74
2023/02/25 07:11:28;;;;;;;5.30;1.67;;;4.40;99.90;;;;;;4665957;30;20271;-74
2023/02/25 07:13:54;;;;;;;5.00;1.33;;;4.50;99.90;;;;;;4666789;30;20186;-76
2023/02/25 07:16:20;;;;;;;10.02;1.77;;;4.50;99.90;;;;;;4662385;30;20197;-75
2023/02/25 07:18:46;;;;;;;8.82;1.60;;;4.40;99.90;;;;;;4671403;30;20240;-74
2023/02/25 07:21:13;;;;;;;9.13;1.20;;;4.40;99.90;;;;;;4665281;30;20217;-74
2023/02/25 07:23:40;;;;;;;6.93;1.45;;;4.40;99.90;;;;;;4655648;30;20227;-74
2023/02/25 07:26:10;;;;;;;6.90;1.20;;;4.40;99.90;;;;;;4672219;30;20212;-74
2023/02/25 07:28:36;;;;;;;5.88;1.40;;;4.50;99.90;;;;;;4665732;30;20196;-73
2023/02/25 07:31:03;;;;;;;10.18;1.80;;;4.50;99.90;;;;;;4657230;30;20193;-73
2023/02/25 07:33:29;;;;;;;5.95;1.33;;;4.60;99.90;;;;;;4671834;30;20283;-74
2023/02/25 07:35:56;;;;;;;11.02;1.75;;;4.80;99.90;;;;;;4665840;30;20209;-73
2023/02/25 07:38:22;;;;;;;15.10;1.83;;;5.00;99.90;;;;;;4665461;30;20686;-73
2023/02/25 07:40:48;;;;;;;7.68;1.77;;;5.20;99.90;;;;;;4658912;30;20273;-74
2023/02/25 07:43:14;;;;;;;14.27;2.40;;;5.40;99.90;;;;;;4659245;30;20201;-73
2023/02/25 07:45:40;;;;;;;9.32;2.15;;;5.60;99.90;;;;;;4664274;30;20299;-75
2023/02/25 07:48:06;;;;;;;17.08;2.60;;;5.80;99.90;;;;;;4673055;30;20193;-75
2023/02/25 07:50:32;;;;;;;14.52;1.98;;;6.00;99.90;;;;;;4663028;30;20203;-74
2023/02/25 07:52:58;;;;;;;17.90;2.40;;;6.30;99.90;;;;;;4662618;30;20193;-74
2023/02/25 07:55:24;;;;;;;11.95;1.95;;;6.40;99.90;;;;;;4663915;30;20249;-74
2023/02/25 07:57:49;;;;;;;9.70;1.83;;;6.60;99.90;;;;;;4660105;30;20281;-75
2023/02/25 08:00:16;;;;;;;20.77;2.45;;;6.70;99.90;;;;;;4667098;30;20268;-73
2023/02/25 08:02:43;;;;;;;9.13;2.17;;;6.90;99.90;;;;;;4666197;30;20240;-75
2023/02/25 08:05:10;;;;;;;15.82;2.60;;;7.10;99.90;;;;;;4659874;30;20597;-72
2023/02/25 08:07:36;;;;;;;14.95;2.30;;;7.30;99.90;;;;;;4667202;30;20196;-74
2023/02/25 08:10:02;;;;;;;9.27;1.70;;;7.40;99.90;;;;;;4668081;30;20536;-74
2023/02/25 08:12:28;;;;;;;9.25;1.63;;;7.30;99.90;;;;;;4653734;30;20257;-73
2023/02/25 08:14:54;;;;;;;12.98;1.95;;;7.10;99.90;;;;;;4653741;30;20202;-75
2023/02/25 08:17:20;;;;;;;11.15;2.10;;;6.80;99.90;;;;;;4659313;30;20284;-79
2023/02/25 08:19:45;;;;;;;12.60;2.47;;;6.60;99.90;;;;;;4667623;30;20685;-74
2023/02/25 08:22:11;;;;;;;15.02;1.92;;;6.60;99.90;;;;;;4668410;30;20583;-73
2023/02/25 08:24:38;;;;;;;7.15;2.00;;;6.80;99.90;;;;;;4667998;30;20193;-73
2023/02/25 08:27:07;;;;;;;6.90;1.92;;;7.00;99.90;;;;;;4618362;30;20199;-73
2023/02/25 08:29:34;;;;;;;14.02;2.00;;;7.20;99.90;;;;;;4657473;30;20205;-74
2023/02/25 08:32:00;;;;;;;9.18;2.05;;;7.30;99.90;;;;;;4649394;30;20205;-73
2023/02/25 08:34:26;;;;;;;9.30;1.73;;;7.20;99.90;;;;;;4665981;30;20600;-73
2023/02/25 08:36:52;;;;;;;7.93;1.90;;;7.10;99.90;;;;;;4656230;30;20249;-75
2023/02/25 08:39:18;;;;;;;6.75;1.48;;;7.00;99.90;;;;;;4648754;30;20632;-75
2023/02/25 08:41:43;;;;;;;8.95;1.85;;;6.90;99.90;;;;;;4655018;30;20249;-73
2023/02/25 08:44:10;;;;;;;15.95;2.40;;;6.80;99.90;;;;;;4669560;30;20295;-72
2023/02/25 08:46:36;;;;;;;12.73;1.83;;;6.70;99.90;;;;;;4648248;30;20192;-74
2023/02/25 08:49:04;;;;;;;9.52;1.80;;;6.80;99.90;;;;;;4647233;30;20205;-74
2023/02/25 08:51:33;;;;;;;11.95;2.45;;;7.00;99.90;;;;;;4649500;30;20189;-75
2023/02/25 08:54:01;;;;;;;11.52;2.05;;;7.00;99.90;;;;;;4675769;30;20283;-73
2023/02/25 08:56:27;;;;;;;10.10;1.88;;;7.00;99.90;;;;;;4668842;30;20203;-74
2023/02/25 08:58:53;;;;;;;8.70;1.60;;;6.90;99.90;;;;;;4681235;30;20185;-74
2023/02/25 09:01:19;;;;;;;13.90;2.15;;;6.80;99.90;;;;;;4671984;30;20217;-74
2023/02/25 09:03:51;;;;;;;11.98;1.88;;;6.80;99.90;;;;;;4637560;30;20212;-74
2023/02/25 09:06:26;;;;;;;11.63;2.10;;;6.70;99.90;;;;;;4668404;30;20196;-74
2023/02/25 09:08:56;;;;;;;9.48;2.00;;;6.60;99.90;;;;;;4660500;30;20200;-74
2023/02/25 09:11:23;;;;;;;10.25;1.65;;;6.50;99.90;;;;;;4666564;30;20301;-75
2023/02/25 09:13:49;;;;;;;11.00;2.47;;;6.40;99.90;;;;;;4658134;30;20681;-74
2023/02/25 09:16:16;;;;;;;5.28;1.30;;;6.30;99.90;;;;;;4672871;30;20205;-73
2023/02/25 09:18:43;;;;;;;10.65;1.75;;;6.20;99.90;;;;;;4677509;30;20198;-75
2023/02/25 09:21:11;;;;;;;11.73;2.20;;;6.10;99.90;;;;;;4657498;30;20710;-76
2023/02/25 09:23:36;;;;;;;11.82;2.08;;;6.20;99.90;;;;;;4675529;30;20212;-74
2023/02/25 09:26:04;;;;;;;9.88;2.22;;;6.20;99.90;;;;;;4664952;30;20202;-74
2023/02/25 09:28:30;;;;;;;15.82;2.30;;;6.20;99.90;;;;;;4667056;30;20186;-75
2023/02/25 09:30:57;;;;;;;9.77;1.80;;;6.20;99.90;;;;;;4663013;30;20205;-74
2023/02/25 09:33:23;;;;;;;16.25;2.13;;;6.30;99.90;;;;;;4669424;30;20220;-74
2023/02/25 09:35:49;;;;;;;11.25;2.30;;;6.40;99.90;;;;;;4667497;30;20206;-76
2023/02/25 09:38:16;;;;;;;17.13;2.10;;;6.70;99.90;;;;;;4643254;30;20217;-75
2023/02/25 09:40:46;;;;;;;6.15;1.45;;;7.10;99.90;;;;;;4662587;30;20280;-80
2023/02/25 09:43:21;;;;;;;8.55;2.17;;;7.40;99.90;;;;;;4662353;30;20291;-74
2023/02/25 09:45:49;;;;;;;12.07;1.73;;;7.60;99.90;;;;;;4668909;30;20560;-75
2023/02/25 09:48:27;;;;;;;8.57;1.88;;;7.90;99.90;;;;;;4661740;30;20211;-76
2023/02/25 09:51:04;;;;;;;8.63;1.88;;;8.10;99.90;;;;;;4677885;30;20200;-75
2023/02/25 09:53:39;;;;;;;8.05;2.00;;;8.40;99.90;;;;;;4673750;30;20235;-74
2023/02/25 09:56:12;;;;;;;6.72;1.70;;;8.60;99.90;;;;;;4673530;30;20189;-78
2023/02/25 09:58:45;;;;;;;9.15;1.85;;;8.90;99.80;;;;;;4669199;30;20189;-73
2023/02/25 10:01:27;;;;;;;10.23;2.33;;;9.00;98.00;;;;;;4667045;30;20682;-72
2023/02/25 10:04:10;;;;;;;8.77;2.20;;;9.00;96.80;;;;;;4667796;30;20593;-76
2023/02/25 10:06:41;;;;;;;5.85;1.90;;;9.20;97.90;;;;;;4665393;30;20200;-76
2023/02/25 10:09:31;;;;;;;6.00;1.60;;;9.20;96.90;;;;;;4679675;30;20197;-75
2023/02/25 10:12:08;;;;;;;12.82;1.92;;;9.30;95.10;;;;;;4675887;30;20292;-74
2023/02/25 10:15:11;;;;;;;7.35;1.80;;;9.40;94.50;;;;;;4668354;30;20275;-72
2023/02/25 10:17:55;;;;;;;6.38;1.50;;;9.50;92.70;;;;;;4664540;30;20657;-73
2023/02/25 10:20:33;;;;;;;6.93;1.65;;;9.70;94.10;;;;;;4662992;30;20204;-76
2023/02/25 10:23:16;;;;;;;6.43;1.52;;;9.90;91.80;;;;;;4664978;30;20664;-75
2023/02/25 10:26:12;;;;;;;5.68;1.60;;;10.10;91.90;;;;;;4681525;30;20169;-78
2023/02/25 10:28:40;;;;;;;6.20;1.50;;;10.10;90.40;;;;;;4657574;30;20201;-75
2023/02/25 10:31:17;;;;;;;6.03;1.30;;;10.20;89.90;;;;;;4654594;30;20656;-73
2023/02/25 10:33:47;;;;;;;5.82;1.70;;;10.30;87.00;;;;;;4655702;30;20193;-74
2023/02/25 10:36:38;;;;;;;6.50;1.55;;;10.50;86.80;;;;;;4671879;30;20190;-75
2023/02/25 10:39:04;;;;;;;6.32;1.60;;;10.60;86.40;;;;;;4659405;30;20189;-83
2023/02/25 10:41:30;;;;;;;5.00;1.55;;;10.70;85.80;;;;;;4645882;30;20751;-75
2023/02/25 10:43:56;;;;;;;12.90;1.90;;;10.70;82.20;;;;;;4676779;30;20268;-78
2023/02/25 10:46:33;;;;;;;11.05;1.88;;;10.70;82.50;;;;;;4661846;30;20205;-74
2023/02/25 10:49:11;;;;;;;8.32;2.10;;;10.70;80.40;;;;;;4657103;30;20300;-78
2023/02/25 10:51:37;;;;;;;7.72;1.60;;;10.70;80.20;;;;;;4650616;30;20667;-77
2023/02/25 10:54:06;;;;;;;8.60;1.60;;;10.70;76.70;;;;;;4680172;30;20193;-74
2023/02/25 10:56:43;;;;;;;9.73;1.52;;;10.70;77.50;;;;;;4679079;30;20197;-74
2023/02/25 10:59:37;;;;;;;5.28;1.17;;;11.00;76.90;;;;;;4665082;30;20303;-74
2023/02/25 11:02:24;;;;;;;5.05;1.50;;;11.10;69.60;;;;;;4663600;30;20690;-74
2023/02/25 11:04:51;;;;;;;6.10;1.50;;;11.20;72.10;;;;;;4681197;30;20188;-78
2023/02/25 11:07:40;;;;;;;4.63;1.30;;;11.40;73.00;;;;;;4681853;30;20203;-73
2023/02/25 11:10:17;;;;;;;4.60;1.27;;;11.60;67.20;;;;;;4658724;30;20206;-74
2023/02/25 11:12:51;;;;;;;4.38;1.23;;;11.60;67.80;;;;;;4651586;30;20197;-76
2023/02/25 11:15:35;;;;;;;4.07;1.30;;;11.80;67.70;;;;;;4678354;30;20194;-74
2023/02/25 11:18:21;;;;;;;5.10;1.33;;;11.90;67.10;;;;;;4668458;30;20205;-75
2023/02/25 11:21:09;;;;;;;6.55;1.38;;;11.90;70.10;;;;;;4657834;30;20200;-74
2023/02/25 11:23:45;;;;;;;4.82;1.17;;;11.80;63.50;;;;;;4679844;30;20236;-75
2023/02/25 11:26:35;;;;;;;5.00;1.13;;;11.90;65.40;;;;;;4676212;30;20642;-74
2023/02/25 11:29:19;;;;;;;4.78;1.52;;;11.90;65.30;;;;;;4677628;30;20254;-75
2023/02/25 11:31:49;;;;;;;3.80;1.10;;;11.90;64.60;;;;;;4661561;30;20219;-75
2023/02/25 11:34:23;;;;;;;4.00;1.15;;;12.10;65.40;;;;;;4676743;30;20253;-74
2023/02/25 11:36:49;;;;;;;7.70;1.35;;;12.30;62.60;;;;;;4675297;30;20193;-74
2023/02/25 11:39:27;;;;;;;6.30;1.77;;;12.40;60.50;;;;;;4671933;30;20259;-76
2023/02/25 11:41:56;;;;;;;8.25;1.35;;;12.40;62.00;;;;;;4675207;30;20224;-75
2023/02/25 11:44:42;;;;;;;6.72;1.10;;;12.50;63.80;;;;;;4664501;30;20239;-75
2023/02/25 11:47:19;;;;;;;5.15;1.45;;;12.50;58.30;;;;;;4679228;30;20260;-76
2023/02/25 11:49:59;;;;;;;7.28;1.63;;;12.30;58.90;;;;;;4680414;30;20192;-75
2023/02/25 11:52:45;;;;;;;4.45;1.20;;;12.20;58.20;;;;;;4679949;30;20200;-75
2023/02/25 11:55:35;;;;;;;6.15;1.58;;;12.20;59.70;;;;;;4663331;30;20673;-74
2023/02/25 11:58:08;;;;;;;10.27;1.50;;;12.20;60.70;;;;;;4664232;30;20192;-76
2023/02/25 12:00:45;;;;;;;4.70;1.45;;;12.30;59.80;;;;;;4670131;30;20234;-79
2023/02/25 12:03:50;;;;;;;7.32;1.20;;;12.40;61.20;;;;;;4658055;30;20205;-76
2023/02/25 12:06:40;;;;;;;6.97;1.30;;;12.40;57.40;;;;;;4651018;30;20204;-75
2023/02/25 12:09:48;;;;;;;7.03;1.75;;;12.60;59.20;;;;;;4677427;30;20193;-75
2023/02/25 12:12:28;;;;;;;7.22;1.30;;;12.80;60.00;;;;;;4663086;30;20241;-76
2023/02/25 12:15:18;;;;;;;5.75;1.20;;;13.00;58.80;;;;;;4655516;30;20245;-75
2023/02/25 12:17:57;;;;;;;8.32;1.50;;;13.00;56.30;;;;;;4666791;30;20190;-74
2023/02/25 12:21:07;;;;;;;4.88;1.10;;;13.00;57.80;;;;;;4682707;30;20275;-73
2023/02/25 12:24:21;;;;;;;8.07;1.30;;;13.10;57.10;;;;;;4622513;31;20226;-74
2023/02/25 12:27:10;;;;;;;8.48;1.40;;;13.40;57.70;;;;;;4631486;31;20210;-73
2023/02/25 12:29:50;;;;;;;5.28;1.50;;;13.40;57.60;;;;;;4629739;30;20217;-74
2023/02/25 12:32:32;;;;;;;7.95;1.50;;;13.50;58.90;;;;;;4677199;30;20267;-77
2023/02/25 12:35:28;;;;;;;9.10;2.20;;;13.60;58.60;;;;;;4674490;30;20201;-76
2023/02/25 12:38:22;;;;;;;6.55;1.95;;;13.50;56.60;;;;;;4680704;30;20196;-73
2023/02/25 12:41:25;;;;;;;9.10;1.30;;;13.00;56.80;;;;;;4683734;30;20177;-77
2023/02/25 12:44:30;;;;;;;8.38;1.80;;;12.20;56.50;;;;;;4667190;30;20263;-73
2023/02/25 12:47:25;;;;;;;8.55;1.67;;;11.50;59.10;;;;;;4667163;30;20766;-74
2023/02/25 12:50:15;;;;;;;4.63;1.20;;;11.10;61.10;;;;;;4672306;30;20201;-74
2023/02/25 12:52:49;;;;;;;7.10;1.42;;;10.90;61.90;;;;;;4676408;30;20267;-72
2023/02/25 12:55:25;;;;;;;9.93;1.55;;;10.70;60.50;;;;;;4683585;30;20212;-73
2023/02/25 12:57:50;;;;;;;9.32;1.58;;;10.70;60.80;;;;;;4670204;30;20192;-74
2023/02/25 13:00:56;;;;;;;39.25;3.75;;;10.80;61.80;;;;;;4676945;30;20196;-72
2023/02/25 13:03:49;;;;;;;7.60;1.80;;;10.80;61.30;;;;;;4666505;30;20222;-74
2023/02/25 13:06:34;;;;;;;8.32;1.70;;;10.90;62.80;;;;;;4661888;30;20264;-75
2023/02/25 13:09:15;;;;;;;4.35;1.45;;;10.80;64.80;;;;;;4676675;30;20188;-74
2023/02/25 13:11:50;;;;;;;9.18;1.60;;;10.60;65.30;;;;;;4651897;30;20307;-74
2023/02/25 13:14:53;;;;;;;6.55;1.52;;;10.40;65.70;;;;;;4673036;30;20188;-74
2023/02/25 13:18:13;;;;;;;5.97;1.58;;;10.10;65.00;;;;;;4673255;30;20243;-78